createdAt,value
2023-04-22T00:01:28.913Z,11.40
2023-04-22T00:03:56.003Z,11.40
2023-04-22T00:06:23.013Z,11.40
2023-04-22T00:08:50.219Z,11.30
2023-04-22T00:11:17.022Z,11.20
2023-04-22T00:13:44.509Z,11.30
2023-04-22T00:16:11.771Z,11.10
2023-04-22T00:18:38.660Z,11.00
2023-04-22T00:21:06.179Z,11.00
2023-04-22T00:23:33.117Z,11.00
2023-04-22T00:26:00.848Z,11.00
2023-04-22T00:28:27.863Z,10.90
2023-04-22T00:30:54.790Z,10.90
2023-04-22T00:33:21.623Z,11.00
2023-04-22T00:35:48.485Z,10.90
2023-04-22T00:38:15.494Z,10.80
2023-04-22T00:40:42.400Z,10.80
2023-04-22T00:43:09.686Z,10.70
2023-04-22T00:45:37.740Z,10.70
2023-04-22T00:48:05.253Z,10.70
2023-04-22T00:50:32.229Z,10.60
2023-04-22T00:52:59.058Z,10.50
2023-04-22T00:55:26.322Z,10.40
2023-04-22T00:57:55.442Z,10.20
2023-04-22T01:00:27.268Z,10.10
2023-04-22T01:02:55.995Z,10.00
2023-04-22T01:05:24.842Z,10.00
2023-04-22T01:07:51.726Z,9.90
2023-04-22T01:10:18.936Z,9.80
2023-04-22T01:12:45.829Z,9.80
2023-04-22T01:15:13.070Z,9.80
2023-04-22T01:17:40.032Z,9.70
2023-04-22T01:20:10.320Z,9.60
2023-04-22T01:22:42.801Z,9.60
2023-04-22T01:25:11.555Z,9.60
2023-04-22T01:27:39.434Z,9.50
2023-04-22T01:30:07.338Z,9.60
2023-04-22T01:32:34.378Z,9.60
2023-04-22T01:35:01.232Z,9.60
2023-04-22T01:37:29.068Z,9.60
2023-04-22T01:39:58.210Z,9.60
2023-04-22T01:42:25.598Z,9.70
2023-04-22T01:44:52.515Z,9.60
2023-04-22T01:47:19.451Z,9.60
2023-04-22T01:49:46.395Z,9.60
2023-04-22T01:52:13.573Z,9.60
2023-04-22T01:54:41.605Z,9.60
2023-04-22T01:57:14.141Z,9.70
2023-04-22T01:59:41.922Z,9.70
2023-04-22T02:02:09.152Z,9.70
2023-04-22T02:04:36.508Z,9.80
2023-04-22T02:07:03.390Z,9.70
2023-04-22T02:09:30.359Z,9.80
2023-04-22T02:11:57.189Z,9.70
2023-04-22T02:14:24.067Z,9.70
2023-04-22T02:16:51.713Z,9.70
2023-04-22T02:19:18.589Z,9.70
2023-04-22T02:21:45.467Z,9.70
2023-04-22T02:24:12.282Z,9.70
2023-04-22T02:26:39.157Z,9.60
2023-04-22T02:29:06.124Z,9.60
2023-04-22T02:31:33.016Z,9.50
2023-04-22T02:33:59.915Z,9.40
2023-04-22T02:36:27.731Z,9.40
2023-04-22T02:38:55.252Z,9.40
2023-04-22T02:41:22.144Z,9.20
2023-04-22T02:43:49.058Z,9.20
2023-04-22T02:46:16.568Z,9.10
2023-04-22T02:48:43.625Z,9.10
2023-04-22T02:51:11.310Z,9.00
2023-04-22T02:53:38.391Z,9.00
2023-04-22T02:56:05.756Z,8.90
2023-04-22T02:58:32.619Z,8.70
2023-04-22T03:00:59.541Z,8.70
2023-04-22T03:03:26.593Z,8.60
2023-04-22T03:05:53.590Z,8.60
2023-04-22T03:08:20.884Z,8.50
2023-04-22T03:10:47.961Z,8.60
2023-04-22T03:13:14.798Z,8.60
2023-04-22T03:15:42.004Z,8.70
2023-04-22T03:18:09.422Z,8.70
2023-04-22T03:20:36.706Z,8.60
2023-04-22T03:23:03.536Z,8.60
2023-04-22T03:25:30.456Z,8.60
2023-04-22T03:27:57.231Z,8.50
2023-04-22T03:30:24.175Z,8.40
2023-04-22T03:32:52.513Z,8.40
2023-04-22T03:35:20.636Z,8.40
2023-04-22T03:37:47.518Z,8.30
2023-04-22T03:40:14.469Z,8.20
2023-04-22T03:42:41.300Z,8.10
2023-04-22T03:45:08.326Z,8.10
2023-04-22T03:47:35.181Z,8.00
2023-04-22T03:50:02.129Z,7.90
2023-04-22T03:52:28.951Z,7.80
2023-04-22T03:54:55.766Z,7.70
2023-04-22T03:57:22.615Z,7.70
2023-04-22T03:59:49.396Z,7.60
2023-04-22T04:02:16.345Z,7.60
2023-04-22T04:04:43.611Z,7.50
2023-04-22T04:07:10.577Z,7.50
2023-04-22T04:09:37.721Z,7.40
2023-04-22T04:12:04.905Z,7.40
2023-04-22T04:14:31.708Z,7.40
2023-04-22T04:16:58.632Z,7.40
2023-04-22T04:19:25.514Z,7.40
2023-04-22T04:21:52.417Z,7.40
2023-04-22T04:24:19.378Z,7.30
2023-04-22T04:26:46.647Z,7.30
2023-04-22T04:29:13.705Z,7.40
2023-04-22T04:31:41.353Z,7.40
2023-04-22T04:34:08.221Z,7.40
2023-04-22T04:36:35.334Z,7.50
2023-04-22T04:39:02.148Z,7.50
2023-04-22T04:41:29.541Z,7.50
2023-04-22T04:43:56.576Z,7.60
2023-04-22T04:46:23.529Z,7.70
2023-04-22T04:48:51.704Z,7.70
2023-04-22T04:51:20.371Z,7.80
2023-04-22T04:53:47.461Z,7.90
2023-04-22T04:56:14.317Z,7.90
2023-04-22T04:58:41.098Z,8.10
2023-04-22T05:01:07.957Z,8.10
2023-04-22T05:03:34.845Z,8.30
2023-04-22T05:06:01.849Z,8.30
2023-04-22T05:08:28.718Z,8.30
2023-04-22T05:10:56.043Z,8.50
2023-04-22T05:13:22.878Z,8.60
2023-04-22T05:15:49.806Z,8.80
2023-04-22T05:18:16.640Z,9.00
2023-04-22T05:20:43.595Z,9.20
2023-04-22T05:23:10.420Z,9.30
2023-04-22T05:25:37.442Z,9.50
2023-04-22T05:28:04.302Z,9.60
2023-04-22T05:30:31.107Z,9.60
2023-04-22T05:32:58.093Z,9.60
2023-04-22T05:35:24.952Z,9.70
2023-04-22T05:37:51.766Z,9.90
2023-04-22T05:40:18.720Z,10.00
2023-04-22T05:42:45.541Z,10.00
2023-04-22T05:45:12.432Z,10.20
2023-04-22T05:47:39.365Z,10.20
2023-04-22T05:50:07.359Z,10.30
2023-04-22T05:52:34.253Z,10.50
2023-04-22T05:55:01.622Z,10.70
2023-04-22T05:57:28.434Z,10.90
2023-04-22T05:59:55.347Z,11.10
2023-04-22T06:02:22.298Z,11.20
2023-04-22T06:04:49.597Z,11.40
2023-04-22T06:07:17.010Z,11.60
2023-04-22T06:09:43.923Z,11.80
2023-04-22T06:12:11.371Z,12.20
2023-04-22T06:14:38.202Z,12.30
2023-04-22T06:17:05.078Z,12.50
2023-04-22T06:19:31.984Z,12.80
2023-04-22T06:21:58.832Z,12.90
2023-04-22T06:24:25.697Z,13.00
2023-04-22T06:26:52.528Z,13.20
2023-04-22T06:29:19.633Z,13.30
2023-04-22T06:31:46.479Z,13.50
2023-04-22T06:34:13.321Z,13.80
2023-04-22T06:36:40.265Z,14.00
2023-04-22T06:39:07.419Z,14.30
2023-04-22T06:41:34.561Z,14.30
2023-04-22T06:44:01.500Z,14.20
2023-04-22T06:46:28.418Z,14.40
2023-04-22T06:48:55.349Z,14.70
2023-04-22T06:51:22.211Z,14.80
2023-04-22T06:53:49.079Z,15.10
2023-04-22T06:56:15.989Z,15.40
2023-04-22T06:58:42.789Z,15.50
2023-04-22T07:01:09.708Z,15.60
2023-04-22T07:03:36.660Z,15.50
2023-04-22T07:06:04.354Z,15.60
2023-04-22T07:08:31.195Z,15.80
2023-04-22T07:10:58.162Z,15.90
2023-04-22T07:13:26.916Z,16.00
2023-04-22T07:15:53.793Z,16.00
2023-04-22T07:18:20.704Z,16.10
2023-04-22T07:20:47.507Z,16.20
2023-04-22T07:23:14.381Z,16.30
2023-04-22T07:25:41.223Z,16.60
2023-04-22T07:28:08.066Z,16.60
2023-04-22T07:30:34.862Z,16.50
2023-04-22T07:33:01.819Z,16.50
2023-04-22T07:35:29.779Z,16.50
2023-04-22T07:37:56.689Z,16.70
2023-04-22T07:40:23.481Z,16.60
2023-04-22T07:42:50.325Z,16.90
2023-04-22T07:45:17.291Z,16.80
2023-04-22T07:47:44.137Z,17.00
2023-04-22T07:50:11.531Z,17.10
2023-04-22T07:52:38.369Z,17.30
2023-04-22T07:55:06.340Z,17.40
2023-04-22T07:57:38.429Z,17.60
2023-04-22T08:00:08.093Z,17.60
2023-04-22T08:02:35.179Z,17.90
2023-04-22T08:05:02.189Z,18.10
2023-04-22T08:07:32.978Z,18.30
2023-04-22T08:10:00.635Z,18.50
2023-04-22T08:12:28.014Z,18.60
2023-04-22T08:14:54.878Z,18.70
2023-04-22T08:17:21.815Z,18.80
2023-04-22T08:19:49.153Z,18.70
2023-04-22T08:22:17.815Z,18.60
2023-04-22T08:24:44.930Z,18.60
2023-04-22T08:27:11.938Z,18.90
2023-04-22T08:29:38.991Z,19.00
2023-04-22T08:32:06.284Z,19.40
2023-04-22T08:34:33.298Z,19.50
2023-04-22T08:37:00.198Z,19.30
2023-04-22T08:39:27.030Z,19.10
2023-04-22T08:41:56.231Z,19.20
2023-04-22T08:44:23.217Z,18.90
2023-04-22T08:46:51.917Z,18.80
2023-04-22T08:49:19.683Z,19.20
2023-04-22T08:51:46.570Z,19.50
2023-04-22T08:54:13.428Z,19.60
2023-04-22T08:56:44.452Z,19.50
2023-04-22T08:59:12.794Z,19.70
2023-04-22T09:01:41.484Z,20.20
2023-04-22T09:04:10.859Z,20.40
2023-04-22T09:06:38.956Z,20.50
2023-04-22T09:09:06.078Z,20.30
2023-04-22T09:11:33.737Z,20.30
2023-04-22T09:14:00.784Z,20.40
2023-04-22T09:16:44.680Z,20.50
2023-04-22T09:19:13.141Z,20.60
2023-04-22T09:21:41.094Z,20.70
2023-04-22T09:24:10.809Z,20.90
2023-04-22T09:26:42.521Z,20.80
2023-04-22T09:29:15.406Z,20.50
2023-04-22T09:31:42.964Z,20.90
2023-04-22T09:34:09.809Z,20.90
2023-04-22T09:36:39.450Z,20.90
2023-04-22T09:39:08.227Z,21.10
2023-04-22T09:41:40.369Z,21.30
2023-04-22T09:44:16.086Z,21.60
2023-04-22T09:46:44.980Z,21.60
2023-04-22T09:49:11.856Z,21.70
2023-04-22T09:51:42.526Z,21.80
2023-04-22T09:54:11.577Z,22.00
2023-04-22T09:56:51.370Z,22.10
2023-04-22T09:59:26.268Z,22.20
2023-04-22T10:01:56.695Z,22.50
2023-04-22T10:04:25.606Z,22.10
2023-04-22T10:06:56.913Z,22.20
2023-04-22T10:09:25.595Z,22.40
2023-04-22T10:11:55.275Z,22.40
2023-04-22T10:14:23.184Z,22.60
2023-04-22T10:16:56.731Z,22.60
2023-04-22T10:19:26.061Z,22.40
2023-04-22T10:21:57.547Z,22.00
2023-04-22T10:24:27.999Z,22.10
2023-04-22T10:27:01.391Z,22.20
2023-04-22T10:29:38.654Z,22.50
2023-04-22T10:32:18.024Z,22.70
2023-04-22T10:34:47.792Z,22.60
2023-04-22T10:37:19.115Z,22.70
2023-04-22T10:40:16.653Z,23.10
2023-04-22T10:42:53.081Z,23.30
2023-04-22T10:45:25.534Z,23.40
2023-04-22T10:47:52.546Z,23.50
2023-04-22T10:50:27.711Z,23.70
2023-04-22T10:53:03.194Z,23.80
2023-04-22T10:55:51.870Z,23.70
2023-04-22T10:58:21.431Z,23.60
2023-04-22T11:00:54.228Z,23.60
2023-04-22T11:03:28.593Z,23.80
2023-04-22T11:06:22.497Z,23.90
2023-04-22T11:08:51.197Z,23.50
2023-04-22T11:11:19.605Z,23.50
2023-04-22T11:13:50.842Z,23.60
2023-04-22T11:16:22.343Z,23.60
2023-04-22T11:18:49.602Z,23.90
2023-04-22T11:21:16.851Z,24.10
2023-04-22T11:23:54.230Z,24.20
2023-04-22T11:26:35.308Z,24.30
2023-04-22T11:29:02.294Z,24.00
2023-04-22T11:31:29.267Z,24.20
2023-04-22T11:34:00.260Z,24.30
2023-04-22T11:36:27.699Z,24.40
2023-04-22T11:38:56.330Z,24.60
2023-04-22T11:41:23.755Z,24.50
2023-04-22T11:43:50.583Z,24.60
2023-04-22T11:46:28.114Z,24.90
2023-04-22T11:48:55.085Z,24.60
2023-04-22T11:51:21.901Z,24.60
2023-04-22T11:53:51.582Z,24.70
2023-04-22T11:56:18.433Z,24.80
2023-04-22T11:58:45.269Z,24.70
2023-04-22T12:01:14.069Z,25.00
2023-04-22T12:03:42.380Z,25.00
2023-04-22T12:06:09.632Z,25.50
2023-04-22T12:08:44.419Z,25.80
2023-04-22T12:11:13.497Z,26.00
2023-04-22T12:13:46.341Z,26.10
2023-04-22T12:16:19.513Z,26.20
2023-04-22T12:18:54.805Z,26.20
2023-04-22T12:21:28.156Z,26.00
2023-04-22T12:24:04.750Z,26.10
2023-04-22T12:26:31.840Z,25.70
2023-04-22T12:29:00.282Z,25.60
2023-04-22T12:31:28.309Z,25.40
2023-04-22T12:33:55.895Z,24.80
2023-04-22T12:36:26.423Z,24.70
2023-04-22T12:38:53.318Z,24.30
2023-04-22T12:41:20.178Z,24.10
2023-04-22T12:43:47.666Z,24.00
2023-04-22T12:46:14.711Z,24.10
2023-04-22T12:48:42.768Z,24.60
2023-04-22T12:51:09.667Z,25.40
2023-04-22T12:53:36.550Z,25.40
2023-04-22T12:56:03.505Z,25.50
2023-04-22T12:58:30.390Z,26.00
2023-04-22T13:00:57.238Z,26.50
2023-04-22T13:03:24.387Z,26.70
2023-04-22T13:05:52.294Z,27.10
2023-04-22T13:08:19.136Z,27.40
2023-04-22T13:10:46.254Z,27.00
2023-04-22T13:13:17.570Z,26.90
2023-04-22T13:15:47.605Z,27.10
2023-04-22T13:18:16.749Z,27.30
2023-04-22T13:20:43.848Z,27.40
2023-04-22T13:23:11.379Z,27.80
2023-04-22T13:25:38.271Z,27.90
2023-04-22T13:28:05.082Z,27.50
2023-04-22T13:30:31.887Z,27.60
2023-04-22T13:32:58.814Z,27.90
2023-04-22T13:35:25.669Z,28.40
2023-04-22T13:37:52.648Z,28.50
2023-04-22T13:40:19.611Z,28.40
2023-04-22T13:42:46.558Z,28.20
2023-04-22T13:45:13.511Z,28.80
2023-04-22T13:47:40.541Z,29.00
2023-04-22T13:50:09.105Z,29.50
2023-04-22T13:52:36.662Z,30.30
2023-04-22T13:55:04.377Z,31.00
2023-04-22T13:57:31.565Z,30.90
2023-04-22T13:59:58.416Z,31.10
2023-04-22T14:02:25.299Z,31.30
2023-04-22T14:04:52.336Z,31.60
2023-04-22T14:07:19.385Z,31.40
2023-04-22T14:09:46.207Z,31.80
2023-04-22T14:12:13.356Z,31.90
2023-04-22T14:14:40.241Z,30.60
2023-04-22T14:17:08.430Z,30.90
2023-04-22T14:19:38.982Z,31.40
2023-04-22T14:22:06.655Z,31.80
2023-04-22T14:24:33.592Z,31.90
2023-04-22T14:27:01.730Z,32.00
2023-04-22T14:29:29.834Z,31.40
2023-04-22T14:31:58.320Z,31.10
2023-04-22T14:34:26.865Z,31.40
2023-04-22T14:36:53.854Z,32.00
2023-04-22T14:39:21.436Z,32.40
2023-04-22T14:41:48.548Z,33.30
2023-04-22T14:44:15.761Z,34.00
2023-04-22T14:46:42.627Z,34.40
2023-04-22T14:49:09.451Z,35.00
2023-04-22T14:51:36.614Z,34.40
2023-04-22T14:54:03.550Z,33.60
2023-04-22T14:56:30.527Z,33.80
2023-04-22T14:58:57.391Z,34.20
2023-04-22T15:01:24.298Z,35.20
2023-04-22T15:03:52.130Z,35.60
2023-04-22T15:06:19.190Z,36.00
2023-04-22T15:08:46.270Z,36.10
2023-04-22T15:11:13.249Z,36.10
2023-04-22T15:13:40.312Z,35.80
2023-04-22T15:16:07.301Z,35.40
2023-04-22T15:18:35.508Z,33.80
2023-04-22T15:21:03.371Z,32.40
2023-04-22T15:23:30.216Z,31.90
2023-04-22T15:25:57.069Z,31.20
2023-04-22T15:28:24.461Z,31.70
2023-04-22T15:30:51.361Z,32.70
2023-04-22T15:33:18.211Z,32.50
2023-04-22T15:35:46.724Z,32.60
2023-04-22T15:38:13.995Z,32.10
2023-04-22T15:40:40.888Z,31.60
2023-04-22T15:43:07.688Z,30.90
2023-04-22T15:45:35.697Z,30.10
2023-04-22T15:48:03.090Z,29.40
2023-04-22T15:50:29.915Z,28.90
2023-04-22T15:52:56.756Z,28.60
2023-04-22T15:55:23.629Z,27.60
2023-04-22T15:57:50.499Z,26.50
2023-04-22T16:00:17.484Z,26.10
2023-04-22T16:02:45.136Z,26.10
2023-04-22T16:05:13.902Z,26.10
2023-04-22T16:07:40.772Z,26.10
2023-04-22T16:10:09.037Z,26.20
2023-04-22T16:12:35.886Z,25.90
2023-04-22T16:15:02.862Z,25.80
2023-04-22T16:17:30.122Z,25.60
2023-04-22T16:19:57.070Z,25.40
2023-04-22T16:22:23.985Z,25.30
2023-04-22T16:24:51.281Z,25.20
2023-04-22T16:27:19.128Z,25.30
2023-04-22T16:29:46.137Z,25.50
2023-04-22T16:32:12.971Z,25.50
2023-04-22T16:34:39.836Z,25.30
2023-04-22T16:37:06.811Z,25.00
2023-04-22T16:39:34.186Z,24.60
2023-04-22T16:42:03.006Z,24.30
2023-04-22T16:44:29.946Z,24.00
2023-04-22T16:46:56.853Z,23.60
2023-04-22T16:49:23.741Z,23.30
2023-04-22T16:51:50.642Z,23.00
2023-04-22T16:54:17.460Z,22.70
2023-04-22T16:56:44.315Z,22.40
2023-04-22T16:59:11.315Z,22.10
2023-04-22T17:01:38.231Z,21.90
2023-04-22T17:04:05.133Z,21.80
2023-04-22T17:06:32.487Z,21.50
2023-04-22T17:08:59.895Z,21.30
2023-04-22T17:11:26.780Z,21.20
2023-04-22T17:13:53.708Z,20.90
2023-04-22T17:16:20.933Z,20.90
2023-04-22T17:18:47.971Z,20.80
2023-04-22T17:21:16.602Z,20.80
2023-04-22T17:23:43.480Z,20.80
2023-04-22T17:26:10.336Z,20.70
2023-04-22T17:28:37.179Z,20.60
2023-04-22T17:31:04.185Z,20.40
2023-04-22T17:33:31.244Z,20.30
2023-04-22T17:35:58.169Z,20.20
2023-04-22T17:38:25.019Z,20.20
2023-04-22T17:40:51.885Z,20.10
2023-04-22T17:43:18.753Z,19.90
2023-04-22T17:45:45.659Z,19.60
2023-04-22T17:48:12.518Z,19.20
2023-04-22T17:50:39.390Z,19.00
2023-04-22T17:53:06.303Z,19.00
2023-04-22T17:55:35.303Z,19.00
2023-04-22T17:58:03.691Z,18.80
2023-04-22T18:00:31.838Z,18.60
2023-04-22T18:02:59.144Z,18.30
2023-04-22T18:05:27.242Z,18.10
2023-04-22T18:08:00.793Z,18.10
2023-04-22T18:10:28.400Z,18.00
2023-04-22T18:12:55.427Z,18.00
2023-04-22T18:15:25.625Z,17.80
2023-04-22T18:17:52.587Z,17.60
2023-04-22T18:20:19.857Z,17.40
2023-04-22T18:22:49.324Z,17.30
2023-04-22T18:25:16.435Z,17.30
2023-04-22T18:27:43.854Z,17.30
2023-04-22T18:30:11.202Z,17.40
2023-04-22T18:32:38.272Z,17.30
2023-04-22T18:35:06.065Z,17.30
2023-04-22T18:37:34.590Z,17.10
2023-04-22T18:40:02.308Z,17.00
2023-04-22T18:42:29.142Z,16.90
2023-04-22T18:44:56.119Z,16.90
2023-04-22T18:47:23.071Z,16.70
2023-04-22T18:49:50.022Z,16.70
2023-04-22T18:52:17.201Z,16.70
2023-04-22T18:54:44.508Z,16.70
2023-04-22T18:57:11.507Z,16.70
2023-04-22T18:59:38.701Z,16.60
2023-04-22T19:02:05.998Z,16.50
2023-04-22T19:04:32.978Z,16.30
2023-04-22T19:06:59.908Z,16.10
2023-04-22T19:09:26.846Z,16.00
2023-04-22T19:11:53.892Z,15.90
2023-04-22T19:14:20.777Z,15.60
2023-04-22T19:16:47.583Z,15.40
2023-04-22T19:19:14.755Z,15.30
2023-04-22T19:21:41.637Z,15.20
2023-04-22T19:24:09.654Z,15.20
2023-04-22T19:26:36.772Z,15.30
2023-04-22T19:29:03.789Z,15.20
2023-04-22T19:31:30.968Z,15.30
2023-04-22T19:33:58.248Z,15.20
2023-04-22T19:36:25.323Z,15.20
2023-04-22T19:38:52.091Z,15.20
2023-04-22T19:41:18.907Z,15.20
2023-04-22T19:43:46.164Z,15.30
2023-04-22T19:46:13.178Z,15.40
2023-04-22T19:48:40.906Z,15.40
2023-04-22T19:51:08.019Z,15.40
2023-04-22T19:53:35.489Z,15.50
2023-04-22T19:56:03.013Z,15.50
2023-04-22T19:58:30.625Z,15.40
2023-04-22T20:00:57.668Z,15.40
2023-04-22T20:03:25.085Z,15.30
2023-04-22T20:05:52.661Z,15.10
2023-04-22T20:08:20.086Z,15.10
2023-04-22T20:10:49.603Z,15.20
2023-04-22T20:13:17.564Z,15.30
2023-04-22T20:15:44.740Z,15.40
2023-04-22T20:18:12.093Z,15.50
2023-04-22T20:20:41.441Z,15.60
2023-04-22T20:23:12.760Z,15.70
2023-04-22T20:25:47.135Z,15.80
2023-04-22T20:28:14.553Z,15.80
2023-04-22T20:30:41.773Z,15.80
2023-04-22T20:33:12.305Z,15.70
2023-04-22T20:35:40.964Z,15.80
2023-04-22T20:38:13.036Z,16.00
2023-04-22T20:40:40.563Z,16.10
2023-04-22T20:43:07.729Z,16.30
2023-04-22T20:45:35.116Z,16.20
2023-04-22T20:48:02.410Z,16.20
2023-04-22T20:50:33.444Z,16.30
2023-04-22T20:53:01.151Z,16.40
2023-04-22T20:55:27.963Z,16.40
2023-04-22T20:57:54.976Z,16.40
2023-04-22T21:00:22.307Z,16.30
2023-04-22T21:02:50.288Z,16.20
2023-04-22T21:05:17.868Z,16.10
2023-04-22T21:07:47.522Z,16.00
2023-04-22T21:10:14.781Z,15.90
2023-04-22T21:12:42.046Z,15.90
2023-04-22T21:15:09.823Z,16.00
2023-04-22T21:17:41.302Z,16.10
2023-04-22T21:20:09.370Z,16.10
2023-04-22T21:22:37.721Z,16.00
2023-04-22T21:25:05.928Z,16.00
2023-04-22T21:27:33.036Z,15.90
2023-04-22T21:30:00.700Z,15.70
2023-04-22T21:32:29.400Z,15.70
2023-04-22T21:34:56.792Z,15.60
2023-04-22T21:37:23.972Z,15.50
2023-04-22T21:39:50.762Z,15.50
2023-04-22T21:42:17.569Z,15.40
2023-04-22T21:44:49.551Z,15.30
2023-04-22T21:47:16.702Z,15.20
2023-04-22T21:49:45.829Z,15.20
2023-04-22T21:52:12.604Z,15.10
2023-04-22T21:54:39.637Z,15.00
2023-04-22T21:57:06.658Z,14.90
2023-04-22T21:59:33.513Z,14.80
2023-04-22T22:02:00.357Z,14.80
2023-04-22T22:04:27.250Z,14.70
2023-04-22T22:06:54.161Z,14.60
2023-04-22T22:09:21.328Z,14.50
2023-04-22T22:11:48.220Z,14.40
2023-04-22T22:14:15.070Z,14.30
2023-04-22T22:16:42.402Z,14.20
2023-04-22T22:19:10.436Z,14.20
2023-04-22T22:21:37.822Z,14.20
2023-04-22T22:24:04.753Z,14.10
2023-04-22T22:26:31.592Z,14.10
2023-04-22T22:28:58.443Z,14.00
2023-04-22T22:31:25.372Z,14.10
2023-04-22T22:33:52.292Z,14.00
2023-04-22T22:36:19.688Z,14.00
2023-04-22T22:38:46.688Z,13.90
2023-04-22T22:41:14.040Z,13.80
2023-04-22T22:43:40.877Z,13.60
2023-04-22T22:46:07.851Z,13.50
2023-04-22T22:48:34.962Z,13.50
2023-04-22T22:51:01.747Z,13.50
2023-04-22T22:53:28.636Z,13.50
2023-04-22T22:55:55.492Z,13.50
2023-04-22T22:58:22.297Z,13.50
2023-04-22T23:00:49.253Z,13.40
2023-04-22T23:03:19.164Z,13.40
2023-04-22T23:05:46.726Z,13.40
2023-04-22T23:08:14.651Z,13.40
2023-04-22T23:10:41.541Z,13.50
2023-04-22T23:13:08.363Z,13.40
2023-04-22T23:15:35.265Z,13.50
2023-04-22T23:18:02.534Z,13.40
2023-04-22T23:20:30.598Z,13.40
2023-04-22T23:22:58.065Z,13.40
2023-04-22T23:25:25.302Z,13.40
2023-04-22T23:27:52.822Z,13.30
2023-04-22T23:30:20.403Z,13.30
2023-04-22T23:32:48.824Z,13.20
2023-04-22T23:35:16.084Z,13.30
2023-04-22T23:37:46.937Z,13.30
2023-04-22T23:40:14.051Z,13.40
2023-04-22T23:42:40.934Z,13.40
2023-04-22T23:45:08.695Z,13.30
2023-04-22T23:47:35.792Z,13.30
2023-04-22T23:50:03.497Z,13.30
2023-04-22T23:52:30.390Z,13.20
2023-04-22T23:54:57.914Z,13.10
2023-04-22T23:57:25.300Z,13.20
2023-04-22T23:59:52.389Z,13.20
